sensor_id;sensor_type;location;lat;lon;timestamp;P1;durP1;ratioP1;P2;durP2;ratioP2
69714;SDS011;56981;53.532;49.398;2022-10-16T00:00:23;5.25;;;2.70;;
69714;SDS011;56981;53.532;49.398;2022-10-16T00:02:54;5.10;;;2.13;;
69714;SDS011;56981;53.532;49.398;2022-10-16T00:05:26;6.05;;;2.83;;
69714;SDS011;56981;53.532;49.398;2022-10-16T00:07:57;4.55;;;2.65;;
69714;SDS011;56981;53.532;49.398;2022-10-16T00:10:28;4.47;;;2.60;;
69714;SDS011;56981;53.532;49.398;2022-10-16T00:15:35;4.43;;;2.50;;
69714;SDS011;56981;53.532;49.398;2022-10-16T00:18:07;5.28;;;3.05;;
69714;SDS011;56981;53.532;49.398;2022-10-16T00:20:38;6.45;;;2.65;;
69714;SDS011;56981;53.532;49.398;2022-10-16T00:23:10;6.68;;;3.85;;
69714;SDS011;56981;53.532;49.398;2022-10-16T00:25:41;8.65;;;3.80;;
69714;SDS011;56981;53.532;49.398;2022-10-16T00:28:12;8.18;;;3.58;;
69714;SDS011;56981;53.532;49.398;2022-10-16T00:30:44;7.28;;;3.70;;
69714;SDS011;56981;53.532;49.398;2022-10-16T00:33:15;5.72;;;3.80;;
69714;SDS011;56981;53.532;49.398;2022-10-16T00:35:46;6.38;;;3.25;;
69714;SDS011;56981;53.532;49.398;2022-10-16T00:38:19;7.38;;;3.63;;
69714;SDS011;56981;53.532;49.398;2022-10-16T00:40:50;8.38;;;3.75;;
69714;SDS011;56981;53.532;49.398;2022-10-16T00:43:35;8.40;;;4.00;;
69714;SDS011;56981;53.532;49.398;2022-10-16T00:46:17;12.73;;;3.63;;
69714;SDS011;56981;53.532;49.398;2022-10-16T00:48:56;10.68;;;4.18;;
69714;SDS011;56981;53.532;49.398;2022-10-16T00:51:41;7.35;;;3.75;;
69714;SDS011;56981;53.532;49.398;2022-10-16T00:54:16;7.63;;;3.75;;
69714;SDS011;56981;53.532;49.398;2022-10-16T00:56:57;8.75;;;3.50;;
69714;SDS011;56981;53.532;49.398;2022-10-16T00:59:33;7.95;;;4.47;;
69714;SDS011;56981;53.532;49.398;2022-10-16T01:02:08;7.18;;;3.85;;
69714;SDS011;56981;53.532;49.398;2022-10-16T01:04:44;6.07;;;3.83;;
69714;SDS011;56981;53.532;49.398;2022-10-16T01:10:17;8.98;;;3.65;;
69714;SDS011;56981;53.532;49.398;2022-10-16T01:13:12;7.82;;;3.30;;
69714;SDS011;56981;53.532;49.398;2022-10-16T01:16:03;9.95;;;3.45;;
69714;SDS011;56981;53.532;49.398;2022-10-16T01:18:46;8.23;;;3.70;;
69714;SDS011;56981;53.532;49.398;2022-10-16T01:33:00;6.60;;;2.97;;
69714;SDS011;56981;53.532;49.398;2022-10-16T01:35:40;6.85;;;3.10;;
69714;SDS011;56981;53.532;49.398;2022-10-16T01:38:17;6.05;;;3.25;;
69714;SDS011;56981;53.532;49.398;2022-10-16T01:40:54;5.43;;;3.40;;
69714;SDS011;56981;53.532;49.398;2022-10-16T01:43:33;9.73;;;3.92;;
69714;SDS011;56981;53.532;49.398;2022-10-16T01:46:09;5.45;;;3.45;;
69714;SDS011;56981;53.532;49.398;2022-10-16T01:48:42;5.50;;;3.28;;
69714;SDS011;56981;53.532;49.398;2022-10-16T01:51:13;6.10;;;3.50;;
69714;SDS011;56981;53.532;49.398;2022-10-16T01:53:52;8.52;;;3.67;;
69714;SDS011;56981;53.532;49.398;2022-10-16T01:56:26;5.50;;;3.33;;
69714;SDS011;56981;53.532;49.398;2022-10-16T01:59:00;6.47;;;3.42;;
69714;SDS011;56981;53.532;49.398;2022-10-16T02:01:36;10.13;;;3.60;;
69714;SDS011;56981;53.532;49.398;2022-10-16T02:04:13;6.18;;;2.92;;
69714;SDS011;56981;53.532;49.398;2022-10-16T02:06:47;5.63;;;2.92;;
69714;SDS011;56981;53.532;49.398;2022-10-16T02:09:19;6.28;;;3.80;;
69714;SDS011;56981;53.532;49.398;2022-10-16T02:11:51;6.32;;;3.38;;
69714;SDS011;56981;53.532;49.398;2022-10-16T02:14:25;5.10;;;2.75;;
69714;SDS011;56981;53.532;49.398;2022-10-16T02:16:57;7.15;;;3.42;;
69714;SDS011;56981;53.532;49.398;2022-10-16T02:19:28;6.65;;;3.40;;
69714;SDS011;56981;53.532;49.398;2022-10-16T02:22:00;9.70;;;3.08;;
69714;SDS011;56981;53.532;49.398;2022-10-16T02:27:48;6.20;;;3.83;;
69714;SDS011;56981;53.532;49.398;2022-10-16T02:33:31;7.07;;;2.60;;
69714;SDS011;56981;53.532;49.398;2022-10-16T02:36:04;3.25;;;2.80;;
69714;SDS011;56981;53.532;49.398;2022-10-16T02:38:36;7.70;;;3.08;;
69714;SDS011;56981;53.532;49.398;2022-10-16T02:41:09;8.98;;;2.67;;
69714;SDS011;56981;53.532;49.398;2022-10-16T02:43:41;4.60;;;3.50;;
69714;SDS011;56981;53.532;49.398;2022-10-16T02:46:12;8.80;;;2.97;;
69714;SDS011;56981;53.532;49.398;2022-10-16T02:48:43;6.68;;;3.13;;
69714;SDS011;56981;53.532;49.398;2022-10-16T02:51:14;4.95;;;2.85;;
69714;SDS011;56981;53.532;49.398;2022-10-16T02:53:46;6.40;;;3.33;;
69714;SDS011;56981;53.532;49.398;2022-10-16T02:56:17;6.40;;;3.47;;
69714;SDS011;56981;53.532;49.398;2022-10-16T02:58:49;4.85;;;2.88;;
69714;SDS011;56981;53.532;49.398;2022-10-16T03:03:51;4.65;;;2.60;;
69714;SDS011;56981;53.532;49.398;2022-10-16T03:06:23;5.57;;;2.47;;
69714;SDS011;56981;53.532;49.398;2022-10-16T03:11:25;3.92;;;2.95;;
69714;SDS011;56981;53.532;49.398;2022-10-16T03:13:57;4.10;;;2.83;;
69714;SDS011;56981;53.532;49.398;2022-10-16T03:18:59;3.67;;;2.20;;
69714;SDS011;56981;53.532;49.398;2022-10-16T03:21:30;5.15;;;2.67;;
69714;SDS011;56981;53.532;49.398;2022-10-16T03:24:01;4.80;;;3.00;;
69714;SDS011;56981;53.532;49.398;2022-10-16T03:26:35;6.22;;;3.17;;
69714;SDS011;56981;53.532;49.398;2022-10-16T03:29:07;4.97;;;2.85;;
69714;SDS011;56981;53.532;49.398;2022-10-16T03:31:38;4.35;;;3.40;;
69714;SDS011;56981;53.532;49.398;2022-10-16T03:34:10;6.95;;;3.70;;
69714;SDS011;56981;53.532;49.398;2022-10-16T03:36:41;7.35;;;3.53;;
69714;SDS011;56981;53.532;49.398;2022-10-16T03:41:43;3.67;;;2.53;;
69714;SDS011;56981;53.532;49.398;2022-10-16T03:44:17;6.72;;;2.83;;
69714;SDS011;56981;53.532;49.398;2022-10-16T03:46:48;5.90;;;2.72;;
69714;SDS011;56981;53.532;49.398;2022-10-16T03:49:19;3.47;;;2.70;;
69714;SDS011;56981;53.532;49.398;2022-10-16T03:51:50;4.90;;;2.85;;
69714;SDS011;56981;53.532;49.398;2022-10-16T03:54:22;3.67;;;2.92;;
69714;SDS011;56981;53.532;49.398;2022-10-16T03:56:53;9.98;;;2.83;;
69714;SDS011;56981;53.532;49.398;2022-10-16T03:59:24;5.13;;;2.72;;
69714;SDS011;56981;53.532;49.398;2022-10-16T04:01:56;7.07;;;2.78;;
69714;SDS011;56981;53.532;49.398;2022-10-16T04:04:27;4.13;;;2.80;;
69714;SDS011;56981;53.532;49.398;2022-10-16T04:06:58;4.82;;;3.40;;
69714;SDS011;56981;53.532;49.398;2022-10-16T04:09:30;5.78;;;2.92;;
69714;SDS011;56981;53.532;49.398;2022-10-16T04:12:01;4.82;;;2.78;;
69714;SDS011;56981;53.532;49.398;2022-10-16T04:14:32;6.18;;;2.90;;
69714;SDS011;56981;53.532;49.398;2022-10-16T04:17:04;5.80;;;3.10;;
69714;SDS011;56981;53.532;49.398;2022-10-16T04:19:35;7.05;;;3.00;;
69714;SDS011;56981;53.532;49.398;2022-10-16T04:22:06;7.68;;;3.10;;
69714;SDS011;56981;53.532;49.398;2022-10-16T04:24:38;5.50;;;2.72;;
69714;SDS011;56981;53.532;49.398;2022-10-16T04:27:09;7.43;;;3.25;;
69714;SDS011;56981;53.532;49.398;2022-10-16T04:29:40;6.13;;;3.08;;
69714;SDS011;56981;53.532;49.398;2022-10-16T04:32:12;5.80;;;3.15;;
69714;SDS011;56981;53.532;49.398;2022-10-16T04:34:43;6.90;;;3.17;;
69714;SDS011;56981;53.532;49.398;2022-10-16T04:37:14;5.05;;;2.88;;
69714;SDS011;56981;53.532;49.398;2022-10-16T04:39:46;3.78;;;3.22;;
69714;SDS011;56981;53.532;49.398;2022-10-16T04:42:17;9.07;;;5.38;;
69714;SDS011;56981;53.532;49.398;2022-10-16T04:44:48;5.32;;;3.55;;
69714;SDS011;56981;53.532;49.398;2022-10-16T04:47:20;5.97;;;3.22;;
69714;SDS011;56981;53.532;49.398;2022-10-16T04:49:51;6.85;;;3.65;;
69714;SDS011;56981;53.532;49.398;2022-10-16T04:52:22;10.48;;;4.10;;
69714;SDS011;56981;53.532;49.398;2022-10-16T04:54:55;7.25;;;3.58;;
69714;SDS011;56981;53.532;49.398;2022-10-16T04:57:31;4.65;;;3.35;;
69714;SDS011;56981;53.532;49.398;2022-10-16T05:00:04;5.93;;;3.75;;
69714;SDS011;56981;53.532;49.398;2022-10-16T05:02:36;5.88;;;3.67;;
69714;SDS011;56981;53.532;49.398;2022-10-16T05:05:07;9.02;;;4.07;;
69714;SDS011;56981;53.532;49.398;2022-10-16T05:07:38;8.57;;;4.32;;
69714;SDS011;56981;53.532;49.398;2022-10-16T05:10:10;8.27;;;4.18;;
69714;SDS011;56981;53.532;49.398;2022-10-16T05:12:41;8.93;;;4.10;;
69714;SDS011;56981;53.532;49.398;2022-10-16T05:15:12;6.63;;;4.15;;
69714;SDS011;56981;53.532;49.398;2022-10-16T05:17:44;15.88;;;6.38;;
69714;SDS011;56981;53.532;49.398;2022-10-16T05:20:15;5.20;;;3.70;;
69714;SDS011;56981;53.532;49.398;2022-10-16T05:22:46;3.95;;;3.35;;
69714;SDS011;56981;53.532;49.398;2022-10-16T05:25:18;4.18;;;3.70;;
69714;SDS011;56981;53.532;49.398;2022-10-16T05:27:50;6.47;;;3.90;;
69714;SDS011;56981;53.532;49.398;2022-10-16T05:30:21;4.35;;;3.58;;
69714;SDS011;56981;53.532;49.398;2022-10-16T05:32:52;3.85;;;3.28;;
69714;SDS011;56981;53.532;49.398;2022-10-16T05:35:24;4.10;;;3.67;;
69714;SDS011;56981;53.532;49.398;2022-10-16T05:37:55;3.45;;;3.15;;
69714;SDS011;56981;53.532;49.398;2022-10-16T05:40:26;6.40;;;3.97;;
69714;SDS011;56981;53.532;49.398;2022-10-16T05:42:58;3.88;;;3.55;;
69714;SDS011;56981;53.532;49.398;2022-10-16T05:45:30;7.13;;;4.00;;
69714;SDS011;56981;53.532;49.398;2022-10-16T05:48:01;9.00;;;5.65;;
69714;SDS011;56981;53.532;49.398;2022-10-16T05:50:32;14.18;;;10.38;;
69714;SDS011;56981;53.532;49.398;2022-10-16T05:53:07;7.90;;;4.07;;
69714;SDS011;56981;53.532;49.398;2022-10-16T05:55:38;5.68;;;4.03;;
69714;SDS011;56981;53.532;49.398;2022-10-16T05:58:10;5.10;;;4.05;;
69714;SDS011;56981;53.532;49.398;2022-10-16T06:00:41;6.28;;;4.03;;
69714;SDS011;56981;53.532;49.398;2022-10-16T06:03:12;6.43;;;4.53;;
69714;SDS011;56981;53.532;49.398;2022-10-16T06:05:44;5.43;;;3.65;;
69714;SDS011;56981;53.532;49.398;2022-10-16T06:08:15;4.82;;;4.00;;
69714;SDS011;56981;53.532;49.398;2022-10-16T06:10:47;6.43;;;4.43;;
69714;SDS011;56981;53.532;49.398;2022-10-16T06:13:19;4.65;;;4.25;;
69714;SDS011;56981;53.532;49.398;2022-10-16T06:15:52;4.70;;;4.25;;
69714;SDS011;56981;53.532;49.398;2022-10-16T06:18:25;3.92;;;3.50;;
69714;SDS011;56981;53.532;49.398;2022-10-16T06:20:57;4.90;;;3.55;;
69714;SDS011;56981;53.532;49.398;2022-10-16T06:23:29;4.80;;;3.50;;
69714;SDS011;56981;53.532;49.398;2022-10-16T06:26:04;4.18;;;3.78;;
69714;SDS011;56981;53.532;49.398;2022-10-16T06:28:39;5.15;;;3.40;;
69714;SDS011;56981;53.532;49.398;2022-10-16T06:31:11;5.97;;;3.63;;
69714;SDS011;56981;53.532;49.398;2022-10-16T06:33:43;4.50;;;3.50;;
69714;SDS011;56981;53.532;49.398;2022-10-16T06:36:16;4.55;;;3.95;;
69714;SDS011;56981;53.532;49.398;2022-10-16T06:38:48;5.30;;;4.07;;
69714;SDS011;56981;53.532;49.398;2022-10-16T06:41:20;5.70;;;4.20;;
69714;SDS011;56981;53.532;49.398;2022-10-16T06:43:52;5.05;;;3.63;;
69714;SDS011;56981;53.532;49.398;2022-10-16T06:46:24;4.88;;;3.95;;
69714;SDS011;56981;53.532;49.398;2022-10-16T06:48:56;5.88;;;4.05;;
69714;SDS011;56981;53.532;49.398;2022-10-16T06:51:27;6.43;;;3.97;;
69714;SDS011;56981;53.532;49.398;2022-10-16T06:54:00;8.48;;;4.45;;
69714;SDS011;56981;53.532;49.398;2022-10-16T06:56:31;6.03;;;4.07;;
69714;SDS011;56981;53.532;49.398;2022-10-16T06:59:04;6.95;;;4.43;;
69714;SDS011;56981;53.532;49.398;2022-10-16T07:01:35;4.40;;;4.00;;
69714;SDS011;56981;53.532;49.398;2022-10-16T07:04:06;5.07;;;3.67;;
69714;SDS011;56981;53.532;49.398;2022-10-16T07:06:38;8.00;;;3.90;;
69714;SDS011;56981;53.532;49.398;2022-10-16T07:09:10;7.90;;;3.85;;
69714;SDS011;56981;53.532;49.398;2022-10-16T07:11:41;4.50;;;4.10;;
69714;SDS011;56981;53.532;49.398;2022-10-16T07:14:17;5.88;;;4.35;;
69714;SDS011;56981;53.532;49.398;2022-10-16T07:16:50;7.93;;;3.72;;
69714;SDS011;56981;53.532;49.398;2022-10-16T07:19:22;4.15;;;3.60;;
69714;SDS011;56981;53.532;49.398;2022-10-16T07:21:54;5.10;;;3.30;;
69714;SDS011;56981;53.532;49.398;2022-10-16T07:24:25;4.25;;;3.35;;
69714;SDS011;56981;53.532;49.398;2022-10-16T07:26:56;4.50;;;2.88;;
69714;SDS011;56981;53.532;49.398;2022-10-16T07:29:28;5.38;;;3.30;;
69714;SDS011;56981;53.532;49.398;2022-10-16T07:32:01;5.28;;;3.17;;
69714;SDS011;56981;53.532;49.398;2022-10-16T07:34:32;3.88;;;3.05;;
69714;SDS011;56981;53.532;49.398;2022-10-16T07:37:04;4.22;;;3.03;;
69714;SDS011;56981;53.532;49.398;2022-10-16T07:39:35;4.43;;;2.88;;
69714;SDS011;56981;53.532;49.398;2022-10-16T07:42:06;5.43;;;3.40;;
69714;SDS011;56981;53.532;49.398;2022-10-16T07:44:38;3.58;;;3.00;;
69714;SDS011;56981;53.532;49.398;2022-10-16T07:47:10;15.73;;;3.53;;
69714;SDS011;56981;53.532;49.398;2022-10-16T07:49:42;9.27;;;3.47;;
69714;SDS011;56981;53.532;49.398;2022-10-16T07:52:13;5.15;;;2.95;;
69714;SDS011;56981;53.532;49.398;2022-10-16T07:54:44;4.70;;;2.90;;
69714;SDS011;56981;53.532;49.398;2022-10-16T07:57:15;5.22;;;2.70;;
69714;SDS011;56981;53.532;49.398;2022-10-16T07:59:50;10.02;;;4.72;;
69714;SDS011;56981;53.532;49.398;2022-10-16T08:02:21;4.53;;;3.58;;
69714;SDS011;56981;53.532;49.398;2022-10-16T08:04:52;4.82;;;2.60;;
69714;SDS011;56981;53.532;49.398;2022-10-16T08:07:24;5.47;;;2.63;;
69714;SDS011;56981;53.532;49.398;2022-10-16T08:09:55;5.45;;;3.00;;
69714;SDS011;56981;53.532;49.398;2022-10-16T08:12:28;4.03;;;2.53;;
69714;SDS011;56981;53.532;49.398;2022-10-16T08:15:00;3.78;;;2.30;;
69714;SDS011;56981;53.532;49.398;2022-10-16T08:17:31;4.13;;;2.67;;
69714;SDS011;56981;53.532;49.398;2022-10-16T08:20:03;7.78;;;2.33;;
69714;SDS011;56981;53.532;49.398;2022-10-16T08:22:35;4.38;;;2.40;;
69714;SDS011;56981;53.532;49.398;2022-10-16T08:25:07;4.03;;;2.00;;
69714;SDS011;56981;53.532;49.398;2022-10-16T08:27:38;3.83;;;2.38;;
69714;SDS011;56981;53.532;49.398;2022-10-16T08:30:10;4.03;;;2.42;;
69714;SDS011;56981;53.532;49.398;2022-10-16T08:32:42;5.45;;;2.60;;
69714;SDS011;56981;53.532;49.398;2022-10-16T08:35:14;12.27;;;2.67;;
69714;SDS011;56981;53.532;49.398;2022-10-16T08:37:45;4.40;;;2.88;;
69714;SDS011;56981;53.532;49.398;2022-10-16T08:40:22;3.88;;;2.88;;
69714;SDS011;56981;53.532;49.398;2022-10-16T08:46:45;5.55;;;2.38;;
69714;SDS011;56981;53.532;49.398;2022-10-16T08:49:41;3.70;;;2.38;;
69714;SDS011;56981;53.532;49.398;2022-10-16T08:52:16;4.78;;;2.30;;
69714;SDS011;56981;53.532;49.398;2022-10-16T08:54:48;4.50;;;2.88;;
69714;SDS011;56981;53.532;49.398;2022-10-16T08:57:25;3.58;;;2.05;;
69714;SDS011;56981;53.532;49.398;2022-10-16T09:00:05;2.65;;;2.20;;
69714;SDS011;56981;53.532;49.398;2022-10-16T09:02:57;2.90;;;2.25;;
69714;SDS011;56981;53.532;49.398;2022-10-16T09:08:45;3.55;;;2.03;;
69714;SDS011;56981;53.532;49.398;2022-10-16T09:11:41;10.82;;;2.83;;
69714;SDS011;56981;53.532;49.398;2022-10-16T09:22:46;3.67;;;2.45;;
69714;SDS011;56981;53.532;49.398;2022-10-16T09:25:18;5.38;;;3.55;;
69714;SDS011;56981;53.532;49.398;2022-10-16T09:27:55;2.67;;;1.75;;
69714;SDS011;56981;53.532;49.398;2022-10-16T09:30:28;2.92;;;2.33;;
69714;SDS011;56981;53.532;49.398;2022-10-16T09:33:00;2.15;;;1.95;;
69714;SDS011;56981;53.532;49.398;2022-10-16T09:35:35;38.15;;;4.90;;
69714;SDS011;56981;53.532;49.398;2022-10-16T09:38:09;8.07;;;3.47;;
69714;SDS011;56981;53.532;49.398;2022-10-16T09:40:52;13.82;;;9.30;;
69714;SDS011;56981;53.532;49.398;2022-10-16T09:46:28;3.55;;;3.00;;
69714;SDS011;56981;53.532;49.398;2022-10-16T09:49:00;14.02;;;6.97;;
69714;SDS011;56981;53.532;49.398;2022-10-16T09:56:39;3.58;;;2.50;;
69714;SDS011;56981;53.532;49.398;2022-10-16T10:01:45;8.73;;;2.75;;
69714;SDS011;56981;53.532;49.398;2022-10-16T10:04:19;3.42;;;2.45;;
69714;SDS011;56981;53.532;49.398;2022-10-16T10:06:53;3.40;;;2.20;;
69714;SDS011;56981;53.532;49.398;2022-10-16T10:09:27;5.00;;;2.40;;
69714;SDS011;56981;53.532;49.398;2022-10-16T10:12:46;4.90;;;2.85;;
69714;SDS011;56981;53.532;49.398;2022-10-16T10:15:11;9.55;;;3.22;;
69714;SDS011;56981;53.532;49.398;2022-10-16T10:17:52;7.18;;;2.70;;
69714;SDS011;56981;53.532;49.398;2022-10-16T10:20:33;5.13;;;2.45;;
69714;SDS011;56981;53.532;49.398;2022-10-16T10:23:21;5.15;;;2.50;;
69714;SDS011;56981;53.532;49.398;2022-10-16T10:37:37;3.72;;;2.72;;
69714;SDS011;56981;53.532;49.398;2022-10-16T10:40:34;3.05;;;2.50;;
69714;SDS011;56981;53.532;49.398;2022-10-16T10:43:34;4.55;;;2.10;;
69714;SDS011;56981;53.532;49.398;2022-10-16T10:54:56;9.20;;;5.53;;
69714;SDS011;56981;53.532;49.398;2022-10-16T11:00:45;12.95;;;7.90;;
69714;SDS011;56981;53.532;49.398;2022-10-16T11:06:33;2.35;;;2.15;;
69714;SDS011;56981;53.532;49.398;2022-10-16T11:14:29;4.78;;;2.47;;
69714;SDS011;56981;53.532;49.398;2022-10-16T11:17:10;4.45;;;2.50;;
69714;SDS011;56981;53.532;49.398;2022-10-16T11:20:05;10.95;;;4.78;;
69714;SDS011;56981;53.532;49.398;2022-10-16T11:22:51;4.03;;;2.50;;
69714;SDS011;56981;53.532;49.398;2022-10-16T11:25:30;2.50;;;2.17;;
69714;SDS011;56981;53.532;49.398;2022-10-16T11:30:54;2.75;;;2.10;;
69714;SDS011;56981;53.532;49.398;2022-10-16T11:36:18;3.65;;;2.00;;
69714;SDS011;56981;53.532;49.398;2022-10-16T11:41:50;3.30;;;2.20;;
69714;SDS011;56981;53.532;49.398;2022-10-16T11:50:29;3.65;;;2.70;;
69714;SDS011;56981;53.532;49.398;2022-10-16T11:53:18;3.38;;;2.70;;
69714;SDS011;56981;53.532;49.398;2022-10-16T11:56:05;6.40;;;3.00;;
69714;SDS011;56981;53.532;49.398;2022-10-16T11:58:41;13.65;;;3.13;;
69714;SDS011;56981;53.532;49.398;2022-10-16T12:01:42;11.13;;;2.97;;
69714;SDS011;56981;53.532;49.398;2022-10-16T12:04:25;12.75;;;3.35;;
69714;SDS011;56981;53.532;49.398;2022-10-16T12:07:20;10.43;;;3.30;;
69714;SDS011;56981;53.532;49.398;2022-10-16T12:09:55;3.35;;;2.08;;
69714;SDS011;56981;53.532;49.398;2022-10-16T12:17:51;3.58;;;1.90;;
69714;SDS011;56981;53.532;49.398;2022-10-16T12:20:30;5.03;;;2.67;;
69714;SDS011;56981;53.532;49.398;2022-10-16T12:23:05;4.93;;;2.47;;
69714;SDS011;56981;53.532;49.398;2022-10-16T12:25:38;3.97;;;1.98;;
69714;SDS011;56981;53.532;49.398;2022-10-16T12:28:21;2.80;;;2.40;;
69714;SDS011;56981;53.532;49.398;2022-10-16T12:31:02;7.75;;;2.67;;
69714;SDS011;56981;53.532;49.398;2022-10-16T12:33:36;73.32;;;9.35;;
69714;SDS011;56981;53.532;49.398;2022-10-16T12:36:14;20.02;;;11.10;;
69714;SDS011;56981;53.532;49.398;2022-10-16T12:38:57;7.10;;;3.22;;
69714;SDS011;56981;53.532;49.398;2022-10-16T12:41:32;9.23;;;4.38;;
69714;SDS011;56981;53.532;49.398;2022-10-16T12:44:20;16.42;;;7.53;;
69714;SDS011;56981;53.532;49.398;2022-10-16T12:46:56;5.05;;;3.00;;
69714;SDS011;56981;53.532;49.398;2022-10-16T12:49:34;4.57;;;2.90;;
69714;SDS011;56981;53.532;49.398;2022-10-16T12:55:13;18.13;;;9.70;;
69714;SDS011;56981;53.532;49.398;2022-10-16T12:58:35;5.97;;;4.00;;
69714;SDS011;56981;53.532;49.398;2022-10-16T13:01:07;6.35;;;3.33;;
69714;SDS011;56981;53.532;49.398;2022-10-16T13:03:56;11.38;;;4.22;;
69714;SDS011;56981;53.532;49.398;2022-10-16T13:10:10;13.50;;;5.65;;
69714;SDS011;56981;53.532;49.398;2022-10-16T13:12:53;25.60;;;10.13;;
69714;SDS011;56981;53.532;49.398;2022-10-16T13:23:47;14.45;;;7.53;;
69714;SDS011;56981;53.532;49.398;2022-10-16T13:29:04;15.35;;;7.32;;
69714;SDS011;56981;53.532;49.398;2022-10-16T13:31:36;15.68;;;8.57;;
69714;SDS011;56981;53.532;49.398;2022-10-16T13:34:12;11.68;;;6.50;;
69714;SDS011;56981;53.532;49.398;2022-10-16T13:36:49;14.30;;;5.93;;
69714;SDS011;56981;53.532;49.398;2022-10-16T13:42:01;17.58;;;5.93;;
69714;SDS011;56981;53.532;49.398;2022-10-16T13:47:20;14.10;;;5.68;;
69714;SDS011;56981;53.532;49.398;2022-10-16T13:50:04;14.85;;;6.28;;
69714;SDS011;56981;53.532;49.398;2022-10-16T13:52:41;10.15;;;5.40;;
69714;SDS011;56981;53.532;49.398;2022-10-16T13:55:17;14.10;;;6.68;;
69714;SDS011;56981;53.532;49.398;2022-10-16T13:57:49;22.40;;;9.18;;
69714;SDS011;56981;53.532;49.398;2022-10-16T14:00:23;14.07;;;6.32;;
69714;SDS011;56981;53.532;49.398;2022-10-16T14:03:11;14.55;;;6.70;;
69714;SDS011;56981;53.532;49.398;2022-10-16T14:05:55;24.60;;;7.43;;
69714;SDS011;56981;53.532;49.398;2022-10-16T14:08:29;20.40;;;6.38;;
69714;SDS011;56981;53.532;49.398;2022-10-16T14:11:01;10.65;;;6.05;;
69714;SDS011;56981;53.532;49.398;2022-10-16T14:13:39;15.38;;;6.10;;
69714;SDS011;56981;53.532;49.398;2022-10-16T14:16:19;13.48;;;5.97;;
69714;SDS011;56981;53.532;49.398;2022-10-16T14:19:02;12.88;;;6.18;;
69714;SDS011;56981;53.532;49.398;2022-10-16T14:21:40;13.77;;;5.35;;
69714;SDS011;56981;53.532;49.398;2022-10-16T14:24:12;13.13;;;6.25;;
69714;SDS011;56981;53.532;49.398;2022-10-16T14:26:53;14.95;;;6.38;;
69714;SDS011;56981;53.532;49.398;2022-10-16T14:29:28;12.65;;;6.60;;
69714;SDS011;56981;53.532;49.398;2022-10-16T14:32:04;16.90;;;6.43;;
69714;SDS011;56981;53.532;49.398;2022-10-16T14:34:39;15.50;;;6.97;;
69714;SDS011;56981;53.532;49.398;2022-10-16T14:37:22;21.70;;;7.75;;
69714;SDS011;56981;53.532;49.398;2022-10-16T14:39:59;13.38;;;7.45;;
69714;SDS011;56981;53.532;49.398;2022-10-16T14:42:35;16.38;;;6.47;;
69714;SDS011;56981;53.532;49.398;2022-10-16T14:45:07;12.23;;;6.68;;
69714;SDS011;56981;53.532;49.398;2022-10-16T14:47:47;18.80;;;7.80;;
69714;SDS011;56981;53.532;49.398;2022-10-16T14:50:21;15.90;;;7.07;;
69714;SDS011;56981;53.532;49.398;2022-10-16T14:52:53;14.45;;;6.82;;
69714;SDS011;56981;53.532;49.398;2022-10-16T14:55:25;17.67;;;7.13;;
69714;SDS011;56981;53.532;49.398;2022-10-16T14:57:56;19.35;;;6.93;;
69714;SDS011;56981;53.532;49.398;2022-10-16T15:00:28;10.25;;;6.57;;
69714;SDS011;56981;53.532;49.398;2022-10-16T15:02:59;11.88;;;6.60;;
69714;SDS011;56981;53.532;49.398;2022-10-16T15:05:30;22.08;;;7.95;;
69714;SDS011;56981;53.532;49.398;2022-10-16T15:08:03;21.63;;;9.07;;
69714;SDS011;56981;53.532;49.398;2022-10-16T15:10:37;19.13;;;8.98;;
69714;SDS011;56981;53.532;49.398;2022-10-16T15:13:11;18.30;;;9.05;;
69714;SDS011;56981;53.532;49.398;2022-10-16T15:15:45;20.33;;;9.10;;
69714;SDS011;56981;53.532;49.398;2022-10-16T15:18:17;21.42;;;9.07;;
69714;SDS011;56981;53.532;49.398;2022-10-16T15:20:51;16.38;;;8.63;;
69714;SDS011;56981;53.532;49.398;2022-10-16T15:23:23;28.00;;;9.05;;
69714;SDS011;56981;53.532;49.398;2022-10-16T15:25:55;20.20;;;8.63;;
69714;SDS011;56981;53.532;49.398;2022-10-16T15:28:27;23.30;;;9.85;;
69714;SDS011;56981;53.532;49.398;2022-10-16T15:30:58;25.08;;;10.98;;
69714;SDS011;56981;53.532;49.398;2022-10-16T15:33:30;21.35;;;9.00;;
69714;SDS011;56981;53.532;49.398;2022-10-16T15:36:04;22.73;;;10.27;;
69714;SDS011;56981;53.532;49.398;2022-10-16T15:38:36;21.45;;;8.32;;
69714;SDS011;56981;53.532;49.398;2022-10-16T15:41:07;18.25;;;7.47;;
69714;SDS011;56981;53.532;49.398;2022-10-16T15:43:38;14.65;;;7.20;;
69714;SDS011;56981;53.532;49.398;2022-10-16T15:46:11;16.33;;;8.02;;
69714;SDS011;56981;53.532;49.398;2022-10-16T15:48:45;20.08;;;9.23;;
69714;SDS011;56981;53.532;49.398;2022-10-16T15:51:17;18.58;;;7.70;;
69714;SDS011;56981;53.532;49.398;2022-10-16T15:53:49;13.25;;;5.53;;
69714;SDS011;56981;53.532;49.398;2022-10-16T15:56:21;15.75;;;8.00;;
69714;SDS011;56981;53.532;49.398;2022-10-16T15:58:56;17.38;;;9.70;;
69714;SDS011;56981;53.532;49.398;2022-10-16T16:01:31;17.85;;;7.13;;
69714;SDS011;56981;53.532;49.398;2022-10-16T16:04:04;16.27;;;6.90;;
69714;SDS011;56981;53.532;49.398;2022-10-16T16:06:36;14.50;;;6.82;;
69714;SDS011;56981;53.532;49.398;2022-10-16T16:09:15;13.48;;;6.50;;
69714;SDS011;56981;53.532;49.398;2022-10-16T16:11:47;11.68;;;5.72;;
69714;SDS011;56981;53.532;49.398;2022-10-16T16:14:20;11.50;;;6.32;;
69714;SDS011;56981;53.532;49.398;2022-10-16T16:16:51;10.88;;;6.38;;
69714;SDS011;56981;53.532;49.398;2022-10-16T16:19:22;10.23;;;5.40;;
69714;SDS011;56981;53.532;49.398;2022-10-16T16:21:54;12.77;;;6.05;;
69714;SDS011;56981;53.532;49.398;2022-10-16T16:24:25;14.98;;;7.55;;
69714;SDS011;56981;53.532;49.398;2022-10-16T16:26:57;16.42;;;8.02;;
69714;SDS011;56981;53.532;49.398;2022-10-16T16:29:47;13.07;;;5.78;;
69714;SDS011;56981;53.532;49.398;2022-10-16T16:32:37;12.65;;;7.97;;
69714;SDS011;56981;53.532;49.398;2022-10-16T16:35:08;11.13;;;5.30;;
69714;SDS011;56981;53.532;49.398;2022-10-16T16:37:40;13.23;;;7.03;;
69714;SDS011;56981;53.532;49.398;2022-10-16T16:40:11;9.48;;;6.38;;
69714;SDS011;56981;53.532;49.398;2022-10-16T16:42:43;14.48;;;6.28;;
69714;SDS011;56981;53.532;49.398;2022-10-16T16:45:14;14.02;;;6.88;;
69714;SDS011;56981;53.532;49.398;2022-10-16T16:47:45;9.88;;;5.88;;
69714;SDS011;56981;53.532;49.398;2022-10-16T16:50:17;8.07;;;5.10;;
69714;SDS011;56981;53.532;49.398;2022-10-16T16:52:48;9.68;;;4.20;;
69714;SDS011;56981;53.532;49.398;2022-10-16T16:55:19;8.00;;;4.65;;
69714;SDS011;56981;53.532;49.398;2022-10-16T16:57:51;12.07;;;4.45;;
69714;SDS011;56981;53.532;49.398;2022-10-16T17:00:22;14.27;;;7.40;;
69714;SDS011;56981;53.532;49.398;2022-10-16T17:02:54;14.40;;;7.13;;
69714;SDS011;56981;53.532;49.398;2022-10-16T17:05:25;14.43;;;8.40;;
69714;SDS011;56981;53.532;49.398;2022-10-16T17:07:57;16.50;;;8.93;;
69714;SDS011;56981;53.532;49.398;2022-10-16T17:10:28;16.05;;;9.25;;
69714;SDS011;56981;53.532;49.398;2022-10-16T17:12:59;17.00;;;9.07;;
69714;SDS011;56981;53.532;49.398;2022-10-16T17:15:31;19.10;;;8.73;;
69714;SDS011;56981;53.532;49.398;2022-10-16T17:18:02;8.73;;;5.03;;
69714;SDS011;56981;53.532;49.398;2022-10-16T17:20:35;8.80;;;4.53;;
69714;SDS011;56981;53.532;49.398;2022-10-16T17:23:07;9.48;;;4.70;;
69714;SDS011;56981;53.532;49.398;2022-10-16T17:25:39;10.50;;;5.15;;
69714;SDS011;56981;53.532;49.398;2022-10-16T17:28:11;9.02;;;6.15;;